Time;durP1;ratioP1;P1;durP2;ratioP2;P2;SDS_P1;SDS_P2;PMS_P1;PMS_P2;Temp;Humidity;BMP_temperature;BMP_pressure;BME280_temperature;BME280_humidity;BME280_pressure;Samples;Min_cycle;Max_cycle;Signal;HPM_P1;HPM_P2
2023/07/14 00:01:25;;;;;;;5.07;2.78;;;17.10;99.90;;;;;;5039943;28;20032;-73
2023/07/14 00:03:52;;;;;;;4.63;2.30;;;17.10;99.90;;;;;;5057935;28;20432;-74
2023/07/14 00:06:20;;;;;;;4.47;2.53;;;17.10;99.90;;;;;;5056195;28;20375;-73
2023/07/14 00:08:47;;;;;;;4.07;2.50;;;17.10;99.90;;;;;;5040823;28;20044;-73
2023/07/14 00:11:22;;;;;;;5.28;2.75;;;17.10;99.90;;;;;;5045912;28;20324;-73
2023/07/14 00:13:51;;;;;;;5.50;3.38;;;17.20;99.90;;;;;;5050375;28;20035;-73
2023/07/14 00:16:23;;;;;;;4.95;2.85;;;17.20;99.90;;;;;;5048965;28;20028;-74
2023/07/14 00:18:50;;;;;;;3.75;2.30;;;17.30;99.90;;;;;;5056837;28;20024;-74
2023/07/14 00:21:23;;;;;;;5.65;2.65;;;17.30;99.90;;;;;;5053992;28;20047;-73
2023/07/14 00:23:50;;;;;;;13.45;3.50;;;17.30;99.90;;;;;;5056421;28;20043;-73
2023/07/14 00:26:19;;;;;;;5.07;2.88;;;17.40;99.90;;;;;;5057511;28;20040;-73
2023/07/14 00:28:48;;;;;;;5.28;3.47;;;17.40;99.90;;;;;;5036962;28;20035;-73
2023/07/14 00:31:20;;;;;;;5.05;3.17;;;17.40;99.90;;;;;;5060352;28;20040;-74
2023/07/14 00:33:49;;;;;;;4.03;2.45;;;17.40;99.90;;;;;;5049488;28;20029;-73
2023/07/14 00:36:17;;;;;;;5.10;3.50;;;17.50;99.90;;;;;;5063844;28;20514;-73
2023/07/14 00:38:44;;;;;;;6.93;4.20;;;17.50;99.90;;;;;;5056045;28;20800;-74
2023/07/14 00:41:21;;;;;;;6.07;3.42;;;17.50;99.90;;;;;;5034620;28;20032;-73
2023/07/14 00:43:49;;;;;;;4.10;2.70;;;17.50;99.90;;;;;;5058588;28;20044;-73
2023/07/14 00:46:28;;;;;;;3.75;2.50;;;17.50;99.90;;;;;;5055537;28;20024;-75
2023/07/14 00:48:59;;;;;;;6.53;3.03;;;17.50;99.90;;;;;;5023022;28;20036;-73
2023/07/14 00:51:29;;;;;;;3.30;2.03;;;17.50;99.90;;;;;;5047679;28;20043;-73
2023/07/14 00:53:56;;;;;;;3.42;2.33;;;17.50;99.90;;;;;;5049065;28;20432;-73
2023/07/14 00:56:44;;;;;;;3.60;2.80;;;17.50;99.90;;;;;;5048332;28;20040;-73
2023/07/14 00:59:16;;;;;;;4.47;2.78;;;17.30;99.90;;;;;;5038427;28;20705;-73
2023/07/14 01:02:11;;;;;;;3.80;2.75;;;17.20;99.90;;;;;;5052915;28;20039;-73
2023/07/14 01:04:44;;;;;;;5.85;3.80;;;17.20;99.90;;;;;;5057544;28;20031;-73
2023/07/14 01:07:12;;;;;;;7.00;3.42;;;17.10;99.90;;;;;;5051258;28;20036;-73
2023/07/14 01:09:39;;;;;;;4.07;2.50;;;17.00;99.90;;;;;;5021514;28;20043;-74
2023/07/14 01:12:07;;;;;;;3.03;2.17;;;16.90;99.90;;;;;;5046630;28;20352;-74
2023/07/14 01:14:39;;;;;;;3.65;3.03;;;16.80;99.90;;;;;;5047601;28;20438;-73
2023/07/14 01:17:06;;;;;;;4.97;3.28;;;16.80;99.90;;;;;;5030037;28;20047;-73
2023/07/14 01:19:58;;;;;;;4.97;2.88;;;16.70;99.90;;;;;;5021224;28;20032;-72
2023/07/14 01:22:45;;;;;;;4.40;2.47;;;16.60;99.90;;;;;;5054723;28;20485;-73
2023/07/14 01:25:22;;;;;;;5.90;2.95;;;16.50;99.90;;;;;;5075035;28;20032;-72
2023/07/14 01:27:49;;;;;;;4.72;2.83;;;16.50;99.90;;;;;;5050720;28;20464;-73
2023/07/14 01:30:16;;;;;;;5.10;2.55;;;16.40;99.90;;;;;;5057171;28;20169;-72
2023/07/14 01:32:46;;;;;;;3.42;2.72;;;16.40;99.90;;;;;;5045268;28;20028;-73
2023/07/14 01:35:15;;;;;;;4.90;3.03;;;16.30;99.90;;;;;;5030298;28;20040;-73
2023/07/14 01:37:41;;;;;;;4.60;3.15;;;16.30;99.90;;;;;;5048264;28;20028;-73
2023/07/14 01:40:13;;;;;;;5.82;3.00;;;16.30;99.90;;;;;;5019413;28;20031;-73
2023/07/14 01:42:42;;;;;;;3.85;3.42;;;16.30;99.90;;;;;;5053022;28;20409;-73
2023/07/14 01:45:17;;;;;;;4.90;3.28;;;16.40;99.90;;;;;;5056698;28;20494;-73
2023/07/14 01:47:53;;;;;;;3.40;2.30;;;16.40;99.90;;;;;;5057583;28;20367;-73
2023/07/14 01:50:31;;;;;;;4.18;2.80;;;16.40;99.90;;;;;;5038780;28;20032;-73
2023/07/14 01:53:08;;;;;;;3.55;3.17;;;16.40;99.90;;;;;;5062173;28;20028;-73
2023/07/14 01:55:38;;;;;;;3.38;2.13;;;16.30;99.90;;;;;;5050516;28;20711;-73
2023/07/14 01:58:11;;;;;;;3.00;2.30;;;16.30;99.90;;;;;;5047442;28;20472;-73
2023/07/14 02:00:39;;;;;;;2.80;2.22;;;16.20;99.90;;;;;;5047005;28;20592;-74
2023/07/14 02:03:10;;;;;;;5.32;3.40;;;16.20;99.90;;;;;;5056343;28;20390;-73
2023/07/14 02:05:38;;;;;;;4.63;3.38;;;16.20;99.90;;;;;;5044651;28;20036;-73
2023/07/14 02:08:10;;;;;;;4.22;2.97;;;16.20;99.90;;;;;;5039600;28;20055;-73
2023/07/14 02:10:36;;;;;;;4.25;2.80;;;16.20;99.90;;;;;;5050089;28;20047;-72
2023/07/14 02:13:05;;;;;;;4.70;3.90;;;16.10;99.90;;;;;;5052747;28;20406;-73
2023/07/14 02:15:34;;;;;;;4.50;3.30;;;16.10;99.90;;;;;;5034646;28;20044;-73
2023/07/14 02:18:01;;;;;;;6.28;4.50;;;16.10;99.90;;;;;;5063080;28;20036;-73
2023/07/14 02:20:36;;;;;;;3.80;3.50;;;16.10;99.90;;;;;;5030166;28;20058;-73
2023/07/14 02:23:06;;;;;;;4.60;3.25;;;16.00;99.90;;;;;;5054575;28;20471;-73
2023/07/14 02:25:44;;;;;;;5.47;2.92;;;15.90;99.90;;;;;;5059631;28;20370;-72
2023/07/14 02:28:10;;;;;;;5.30;3.67;;;15.90;99.90;;;;;;5039407;28;20616;-72
2023/07/14 02:30:38;;;;;;;4.72;4.22;;;15.80;99.90;;;;;;5031700;28;20477;-72
2023/07/14 02:33:17;;;;;;;4.57;3.63;;;15.80;99.90;;;;;;5050969;28;20047;-73
2023/07/14 02:36:08;;;;;;;6.40;4.53;;;15.80;99.90;;;;;;5052855;28;20023;-72
2023/07/14 02:38:36;;;;;;;5.25;4.15;;;15.90;99.90;;;;;;5025085;28;20399;-72
2023/07/14 02:41:19;;;;;;;6.40;4.05;;;15.90;99.90;;;;;;5052580;28;20245;-73
2023/07/14 02:43:50;;;;;;;4.72;3.13;;;16.00;99.90;;;;;;5046454;28;20402;-73
2023/07/14 02:46:37;;;;;;;3.70;3.33;;;16.00;99.90;;;;;;5059226;28;20404;-73
2023/07/14 02:49:06;;;;;;;4.97;3.25;;;16.00;99.90;;;;;;5038146;28;20036;-73
2023/07/14 02:51:32;;;;;;;5.80;3.95;;;16.00;99.90;;;;;;5050931;28;20036;-72
2023/07/14 02:53:59;;;;;;;6.03;4.68;;;15.90;99.90;;;;;;5048835;28;20077;-73
2023/07/14 02:56:25;;;;;;;4.53;3.83;;;15.90;99.90;;;;;;5050487;28;20035;-72
2023/07/14 02:58:52;;;;;;;6.22;4.32;;;16.00;99.90;;;;;;5022458;28;20399;-72
2023/07/14 03:01:19;;;;;;;5.22;4.32;;;16.00;99.90;;;;;;5066105;28;20028;-72
2023/07/14 03:03:46;;;;;;;6.20;3.58;;;16.00;99.90;;;;;;5053687;28;20032;-73
2023/07/14 03:06:15;;;;;;;6.85;4.93;;;16.10;99.90;;;;;;5058163;28;20030;-72
2023/07/14 03:08:42;;;;;;;4.25;3.85;;;16.10;99.90;;;;;;5047465;28;20040;-72
2023/07/14 03:11:09;;;;;;;5.68;3.72;;;16.10;99.90;;;;;;5053187;28;20035;-72
2023/07/14 03:13:35;;;;;;;4.43;3.75;;;16.20;99.90;;;;;;5033941;28;20032;-72
2023/07/14 03:16:03;;;;;;;4.85;4.28;;;16.20;99.90;;;;;;5049414;28;20395;-73
2023/07/14 03:18:30;;;;;;;6.07;4.72;;;16.20;99.90;;;;;;5024938;28;20036;-73
2023/07/14 03:20:58;;;;;;;6.38;4.40;;;16.20;99.90;;;;;;5063834;28;20016;-72
2023/07/14 03:23:25;;;;;;;5.30;3.90;;;16.20;99.90;;;;;;5048726;28;20039;-71
2023/07/14 03:25:58;;;;;;;4.80;4.18;;;16.20;99.90;;;;;;5041044;28;20036;-72
2023/07/14 03:28:25;;;;;;;6.20;5.15;;;16.10;99.90;;;;;;5033451;28;20043;-73
2023/07/14 03:30:51;;;;;;;7.22;5.20;;;16.10;99.90;;;;;;5053452;28;20036;-73
2023/07/14 03:33:17;;;;;;;5.60;4.35;;;16.10;99.90;;;;;;5050781;28;20036;-73
2023/07/14 03:35:44;;;;;;;6.80;4.40;;;16.10;99.90;;;;;;5049657;28;20031;-72
2023/07/14 03:38:10;;;;;;;5.72;4.45;;;16.10;99.90;;;;;;5046708;28;20043;-72
2023/07/14 03:40:37;;;;;;;6.10;5.00;;;16.00;99.90;;;;;;5046853;28;20846;-72
2023/07/14 03:43:03;;;;;;;7.07;5.85;;;16.00;99.90;;;;;;5048176;28;20036;-71
2023/07/14 03:45:34;;;;;;;5.28;4.70;;;16.00;99.90;;;;;;5055441;28;20028;-72
2023/07/14 03:48:03;;;;;;;8.57;5.40;;;15.90;99.90;;;;;;5038012;28;20035;-72
2023/07/14 03:50:30;;;;;;;7.53;5.95;;;15.90;99.90;;;;;;5049724;28;20390;-72
2023/07/14 03:52:56;;;;;;;5.47;4.80;;;15.90;99.90;;;;;;5050093;28;20040;-73
2023/07/14 03:55:23;;;;;;;4.97;4.47;;;15.90;99.90;;;;;;5016567;28;20047;-72
2023/07/14 03:57:49;;;;;;;4.45;4.05;;;15.80;99.90;;;;;;5048170;28;20618;-72
2023/07/14 04:00:17;;;;;;;5.57;4.70;;;15.80;99.90;;;;;;5042109;28;20043;-72
2023/07/14 04:02:49;;;;;;;5.43;4.63;;;15.80;99.90;;;;;;5049320;28;20028;-72
2023/07/14 04:05:16;;;;;;;6.53;4.40;;;15.80;99.90;;;;;;5034441;28;21492;-73
2023/07/14 04:07:43;;;;;;;4.43;3.25;;;15.80;99.90;;;;;;5025439;28;20036;-73
2023/07/14 04:10:11;;;;;;;4.10;3.70;;;15.70;99.90;;;;;;5046962;28;20605;-72
2023/07/14 04:12:38;;;;;;;3.97;3.20;;;15.70;99.90;;;;;;5055261;28;20036;-72
2023/07/14 04:15:04;;;;;;;6.10;3.35;;;15.70;99.90;;;;;;5032463;28;20047;-73
2023/07/14 04:17:33;;;;;;;4.50;3.97;;;15.70;99.90;;;;;;5032877;28;20024;-72
2023/07/14 04:19:59;;;;;;;6.53;3.97;;;15.70;99.90;;;;;;5038940;28;20008;-73
2023/07/14 04:22:26;;;;;;;5.68;4.32;;;15.70;99.90;;;;;;5050134;28;20717;-71
2023/07/14 04:24:53;;;;;;;6.93;5.30;;;15.70;99.90;;;;;;5049971;28;20032;-71
2023/07/14 04:27:19;;;;;;;7.20;4.95;;;15.70;99.90;;;;;;5055311;28;20016;-72
2023/07/14 04:29:46;;;;;;;6.22;5.63;;;15.80;99.90;;;;;;5047357;28;20020;-71
2023/07/14 04:32:12;;;;;;;6.03;3.85;;;15.80;99.90;;;;;;5056329;28;20580;-71
2023/07/14 04:34:38;;;;;;;4.25;3.67;;;15.80;99.90;;;;;;5064893;28;20020;-71
2023/07/14 04:37:06;;;;;;;5.20;4.22;;;15.90;99.90;;;;;;5048809;28;20035;-72
2023/07/14 04:39:33;;;;;;;6.80;5.63;;;16.00;99.90;;;;;;5028886;28;20870;-71
2023/07/14 04:42:00;;;;;;;6.57;4.00;;;16.10;99.90;;;;;;5050959;28;20043;-71
2023/07/14 04:44:26;;;;;;;6.97;4.95;;;16.20;99.90;;;;;;5049142;28;20048;-71
2023/07/14 04:46:53;;;;;;;5.35;4.10;;;16.30;99.90;;;;;;5052366;28;20027;-71
2023/07/14 04:49:19;;;;;;;5.22;4.30;;;16.30;99.90;;;;;;5049905;28;20020;-71
2023/07/14 04:51:45;;;;;;;6.60;4.45;;;16.40;99.90;;;;;;5040734;28;20036;-71
2023/07/14 04:54:12;;;;;;;6.47;4.35;;;16.50;99.90;;;;;;5067284;28;20024;-71
2023/07/14 04:56:43;;;;;;;5.20;3.67;;;16.50;99.90;;;;;;5046751;28;20474;-71
2023/07/14 04:59:10;;;;;;;6.80;5.25;;;16.60;99.90;;;;;;5041018;28;20028;-72
2023/07/14 05:01:37;;;;;;;7.05;5.00;;;16.60;99.90;;;;;;5050655;28;20066;-71
2023/07/14 05:04:03;;;;;;;5.72;4.32;;;16.70;99.90;;;;;;5050377;28;21127;-71
2023/07/14 05:06:31;;;;;;;7.65;4.20;;;16.80;99.90;;;;;;5052524;28;22186;-71
2023/07/14 05:08:58;;;;;;;6.38;4.63;;;16.80;99.90;;;;;;5045768;28;20407;-71
2023/07/14 05:11:24;;;;;;;6.07;4.30;;;16.80;99.90;;;;;;5057896;28;20044;-71
2023/07/14 05:13:52;;;;;;;5.78;4.35;;;16.90;99.90;;;;;;5055064;28;20490;-71
2023/07/14 05:16:18;;;;;;;5.88;4.28;;;16.90;99.90;;;;;;5049989;28;20028;-71
2023/07/14 05:18:46;;;;;;;4.60;3.75;;;17.00;99.90;;;;;;5056651;28;20035;-72
2023/07/14 05:21:12;;;;;;;5.13;3.47;;;17.10;99.90;;;;;;5050732;28;20032;-71
2023/07/14 05:23:39;;;;;;;7.07;3.70;;;17.30;99.90;;;;;;5050519;28;20036;-71
2023/07/14 05:26:06;;;;;;;6.00;3.40;;;17.30;99.90;;;;;;5049190;28;20806;-71
2023/07/14 05:28:32;;;;;;;5.47;3.92;;;17.40;99.90;;;;;;5049667;28;20044;-72
2023/07/14 05:31:00;;;;;;;4.88;3.42;;;17.40;99.90;;;;;;5058738;28;20044;-71
2023/07/14 05:33:26;;;;;;;5.30;3.60;;;17.50;99.90;;;;;;5057383;28;20047;-71
2023/07/14 05:35:53;;;;;;;6.07;4.05;;;17.60;99.90;;;;;;5049396;28;20329;-71
2023/07/14 05:38:19;;;;;;;5.53;3.72;;;17.60;99.90;;;;;;5043408;28;20768;-71
2023/07/14 05:40:54;;;;;;;4.20;3.53;;;17.60;99.90;;;;;;5051156;28;20045;-71
2023/07/14 05:43:20;;;;;;;3.72;3.05;;;17.70;99.90;;;;;;5030694;28;20040;-71
2023/07/14 05:45:48;;;;;;;3.28;2.95;;;17.70;99.90;;;;;;5050154;28;20619;-71
2023/07/14 05:48:17;;;;;;;3.40;2.80;;;17.80;99.90;;;;;;5042875;28;20040;-71
2023/07/14 05:50:45;;;;;;;5.05;3.35;;;17.80;99.90;;;;;;5054939;28;20020;-71
2023/07/14 05:53:13;;;;;;;5.65;3.90;;;17.70;99.90;;;;;;5074526;28;20032;-71
2023/07/14 05:55:40;;;;;;;4.35;2.83;;;17.90;99.90;;;;;;5049116;28;20036;-71
2023/07/14 05:58:09;;;;;;;5.35;3.88;;;18.10;99.90;;;;;;5045650;28;20458;-71
2023/07/14 06:00:38;;;;;;;4.03;2.97;;;18.30;99.90;;;;;;5047467;28;20032;-71
2023/07/14 06:03:06;;;;;;;6.90;4.20;;;18.40;99.90;;;;;;5047464;28;20055;-71
2023/07/14 06:05:33;;;;;;;3.75;2.85;;;18.60;99.90;;;;;;5032942;28;20063;-71
2023/07/14 06:07:59;;;;;;;6.07;4.18;;;18.80;99.90;;;;;;5050058;28;20035;-71
2023/07/14 06:10:26;;;;;;;4.82;3.75;;;18.90;99.90;;;;;;5054133;28;20589;-72
2023/07/14 06:12:52;;;;;;;6.25;4.00;;;18.90;99.90;;;;;;5056255;28;20043;-72
2023/07/14 06:15:19;;;;;;;5.43;4.00;;;19.00;99.90;;;;;;5085334;28;20081;-72
2023/07/14 06:17:46;;;;;;;6.18;4.38;;;19.20;99.90;;;;;;5049555;28;20036;-72
2023/07/14 06:20:12;;;;;;;8.00;4.88;;;19.60;99.90;;;;;;5043048;28;20025;-71
2023/07/14 06:22:39;;;;;;;5.03;3.80;;;19.80;99.90;;;;;;5049093;28;20549;-72
2023/07/14 06:25:05;;;;;;;5.15;3.15;;;19.90;99.90;;;;;;5050747;28;20039;-72
2023/07/14 06:27:33;;;;;;;6.18;3.85;;;20.00;99.90;;;;;;5050754;28;20036;-72
2023/07/14 06:30:00;;;;;;;4.38;3.00;;;20.20;99.90;;;;;;5049757;28;20037;-72
2023/07/14 06:32:26;;;;;;;3.83;1.75;;;20.50;99.90;;;;;;5058852;28;20032;-72
2023/07/14 06:34:56;;;;;;;4.70;2.65;;;20.70;99.90;;;;;;5054692;28;20044;-72
2023/07/14 06:37:24;;;;;;;6.20;3.45;;;20.90;99.90;;;;;;5048318;28;20042;-72
2023/07/14 06:39:51;;;;;;;4.38;2.20;;;21.00;99.90;;;;;;5042653;28;20032;-72
2023/07/14 06:42:17;;;;;;;4.25;2.05;;;21.00;99.90;;;;;;5067379;28;20040;-72
2023/07/14 06:44:44;;;;;;;4.90;1.92;;;21.00;99.90;;;;;;5034755;28;20040;-72
2023/07/14 06:47:14;;;;;;;3.85;1.80;;;21.00;99.90;;;;;;5052015;28;20371;-73
2023/07/14 06:49:40;;;;;;;4.43;2.22;;;21.00;99.90;;;;;;5048733;28;20031;-72
2023/07/14 06:52:07;;;;;;;3.10;1.50;;;21.10;99.90;;;;;;5044834;28;22947;-72
2023/07/14 06:54:34;;;;;;;3.10;1.65;;;21.20;99.90;;;;;;5058928;28;20717;-72
2023/07/14 06:57:00;;;;;;;5.15;2.10;;;21.30;99.90;;;;;;5054313;28;20036;-73
2023/07/14 06:59:27;;;;;;;3.75;1.52;;;21.40;99.90;;;;;;5032476;28;20047;-72
2023/07/14 07:01:53;;;;;;;6.18;1.73;;;21.50;99.90;;;;;;5034950;28;20044;-72
2023/07/14 07:04:19;;;;;;;3.97;2.05;;;21.60;99.90;;;;;;5033854;28;20040;-73
2023/07/14 07:06:46;;;;;;;5.57;2.03;;;21.80;99.90;;;;;;5034530;28;20483;-74
2023/07/14 07:09:12;;;;;;;5.93;2.85;;;21.80;99.90;;;;;;5065665;28;20394;-72
2023/07/14 07:11:39;;;;;;;6.20;2.40;;;21.80;99.90;;;;;;5059930;28;20036;-73
2023/07/14 07:14:05;;;;;;;4.18;1.95;;;21.70;99.90;;;;;;5041939;28;20039;-72
2023/07/14 07:16:31;;;;;;;3.20;1.67;;;21.40;99.90;;;;;;5057391;28;20036;-72
2023/07/14 07:18:58;;;;;;;4.63;2.00;;;21.30;99.90;;;;;;5027846;28;20036;-72
2023/07/14 07:21:24;;;;;;;6.53;2.15;;;21.20;99.90;;;;;;5047312;28;20036;-73
2023/07/14 07:23:50;;;;;;;4.30;2.20;;;21.20;99.90;;;;;;5053741;28;20029;-72
2023/07/14 07:26:17;;;;;;;3.83;1.73;;;21.20;99.90;;;;;;5051643;28;20032;-73
2023/07/14 07:28:43;;;;;;;4.45;2.63;;;21.40;99.90;;;;;;5045133;28;20047;-72
2023/07/14 07:31:11;;;;;;;4.28;1.65;;;21.70;99.90;;;;;;5056107;28;20025;-73
2023/07/14 07:33:38;;;;;;;2.88;1.52;;;22.00;99.90;;;;;;5058980;28;20044;-73
2023/07/14 07:36:27;;;;;;;3.85;1.77;;;22.20;99.90;;;;;;5058093;28;20047;-72
2023/07/14 07:38:52;;;;;;;4.63;2.10;;;22.30;99.90;;;;;;5046279;28;20055;-72
2023/07/14 07:41:22;;;;;;;3.90;2.17;;;22.30;99.90;;;;;;5030758;28;20046;-73
2023/07/14 07:43:49;;;;;;;6.70;3.95;;;22.30;99.90;;;;;;5044489;28;20616;-73
2023/07/14 07:46:15;;;;;;;3.33;1.92;;;22.30;99.90;;;;;;5052726;28;20225;-73
2023/07/14 07:48:44;;;;;;;5.38;3.30;;;22.40;99.90;;;;;;5062048;28;20044;-73
2023/07/14 07:51:10;;;;;;;4.60;2.33;;;22.50;99.90;;;;;;5053799;28;20569;-73
2023/07/14 07:53:37;;;;;;;3.50;1.52;;;22.60;99.90;;;;;;5057666;28;20035;-73
2023/07/14 07:56:03;;;;;;;5.40;2.28;;;22.70;99.90;;;;;;5059484;28;20036;-73
2023/07/14 07:58:30;;;;;;;4.43;1.85;;;22.80;99.90;;;;;;5042640;28;20032;-73
2023/07/14 08:01:02;;;;;;;3.63;1.55;;;23.00;99.90;;;;;;5048243;28;20597;-73
2023/07/14 08:03:30;;;;;;;2.90;0.90;;;23.20;99.90;;;;;;5046412;28;21012;-72
2023/07/14 08:06:01;;;;;;;3.30;1.45;;;23.40;99.90;;;;;;5061624;28;20035;-72
2023/07/14 08:08:29;;;;;;;2.95;1.35;;;23.60;99.90;;;;;;5026786;28;21623;-73
2023/07/14 08:10:55;;;;;;;3.50;1.10;;;23.80;99.90;;;;;;5050917;28;20040;-72
2023/07/14 08:13:24;;;;;;;3.80;1.00;;;24.00;99.90;;;;;;5055765;28;20513;-73
2023/07/14 08:15:55;;;;;;;2.25;0.93;;;24.10;99.90;;;;;;5057346;28;20036;-72
2023/07/14 08:18:22;;;;;;;2.55;0.98;;;24.10;99.90;;;;;;5047873;28;20040;-73
2023/07/14 08:20:49;;;;;;;4.88;1.10;;;24.10;99.90;;;;;;5048672;28;20039;-73
2023/07/14 08:23:18;;;;;;;2.95;1.15;;;24.10;99.90;;;;;;5048958;28;20032;-72
2023/07/14 08:26:05;;;;;;;2.13;0.88;;;24.00;99.90;;;;;;5049182;28;20052;-72
2023/07/14 08:28:32;;;;;;;2.75;1.35;;;23.90;99.90;;;;;;5025995;28;20043;-72
2023/07/14 08:31:02;;;;;;;2.35;1.17;;;23.80;99.90;;;;;;5047681;28;20028;-73
2023/07/14 08:33:29;;;;;;;3.70;1.40;;;23.60;99.90;;;;;;5041189;28;20434;-73
2023/07/14 08:36:00;;;;;;;1.98;1.23;;;23.60;99.90;;;;;;5039371;28;20530;-73
2023/07/14 08:38:31;;;;;;;2.60;1.02;;;23.80;99.90;;;;;;5048728;28;20047;-72
2023/07/14 08:41:29;;;;;;;4.35;1.63;;;24.00;99.90;;;;;;5048770;28;20857;-73
2023/07/14 08:44:17;;;;;;;3.58;1.30;;;24.30;99.90;;;;;;5047865;28;20075;-72
2023/07/14 08:47:12;;;;;;;5.60;1.00;;;24.30;99.90;;;;;;5029715;28;20037;-72
2023/07/14 08:49:40;;;;;;;2.60;1.00;;;24.50;99.90;;;;;;5042357;28;20489;-72
2023/07/14 08:52:17;;;;;;;12.27;9.40;;;24.50;99.90;;;;;;5035978;28;20028;-72
2023/07/14 08:54:51;;;;;;;11.18;7.65;;;24.70;99.90;;;;;;5073803;28;20039;-73
2023/07/14 08:57:22;;;;;;;5.13;2.55;;;25.10;99.90;;;;;;5056593;28;20063;-73
2023/07/14 08:59:54;;;;;;;4.53;1.42;;;25.40;99.80;;;;;;5043931;28;20040;-73
2023/07/14 09:02:39;;;;;;;4.72;1.45;;;25.50;99.40;;;;;;5031040;28;20403;-73
2023/07/14 09:05:16;;;;;;;2.85;1.20;;;25.60;99.50;;;;;;5046890;28;20513;-73
2023/07/14 09:07:43;;;;;;;3.28;1.08;;;25.60;98.70;;;;;;5049410;28;20032;-73
2023/07/14 09:10:12;;;;;;;2.33;0.90;;;25.50;98.80;;;;;;5043899;28;20490;-73
2023/07/14 09:12:53;;;;;;;5.10;1.15;;;25.50;98.10;;;;;;5052045;28;20353;-73
2023/07/14 09:15:25;;;;;;;4.32;0.95;;;25.50;97.70;;;;;;5056543;28;20530;-73
2023/07/14 09:18:30;;;;;;;2.08;0.70;;;25.60;97.60;;;;;;5055379;28;21944;-73
2023/07/14 09:21:21;;;;;;;2.50;0.88;;;25.60;96.60;;;;;;5062919;28;20530;-73
2023/07/14 09:24:05;;;;;;;4.60;1.20;;;25.60;96.10;;;;;;5063571;28;20041;-73
2023/07/14 09:26:34;;;;;;;2.58;0.80;;;25.70;96.10;;;;;;5063353;28;20039;-73
2023/07/14 09:29:19;;;;;;;3.55;1.27;;;25.80;95.70;;;;;;5059589;28;20399;-73
2023/07/14 09:31:53;;;;;;;1.95;0.80;;;25.80;95.40;;;;;;5051039;28;20820;-73
2023/07/14 09:34:25;;;;;;;3.15;1.02;;;25.90;95.50;;;;;;5055703;28;20300;-73
2023/07/14 09:36:53;;;;;;;2.83;0.90;;;26.10;95.00;;;;;;5059534;28;20391;-73
2023/07/14 09:39:36;;;;;;;2.78;1.02;;;26.10;94.50;;;;;;5048595;28;20040;-73
2023/07/14 09:42:10;;;;;;;3.72;1.52;;;26.10;94.60;;;;;;5048636;28;20346;-73
2023/07/14 09:44:36;;;;;;;3.72;1.52;;;26.10;94.20;;;;;;5047599;28;20449;-73
2023/07/14 09:47:05;;;;;;;2.88;0.85;;;26.30;94.60;;;;;;5032181;28;20044;-73
2023/07/14 09:49:39;;;;;;;3.30;1.10;;;26.40;94.40;;;;;;5042648;28;20050;-73
2023/07/14 09:52:15;;;;;;;3.83;1.10;;;26.40;94.20;;;;;;5046739;28;20047;-73
2023/07/14 09:54:59;;;;;;;3.25;1.25;;;26.50;93.70;;;;;;5054199;28;20040;-73
2023/07/14 09:57:34;;;;;;;2.03;0.85;;;26.50;93.40;;;;;;5057123;28;20024;-72
2023/07/14 10:00:14;;;;;;;2.97;0.90;;;26.50;93.20;;;;;;5044004;28;20475;-73
2023/07/14 10:02:41;;;;;;;4.65;1.13;;;26.60;92.80;;;;;;5067190;28;20446;-72
2023/07/14 10:05:44;;;;;;;3.17;1.23;;;26.70;92.60;;;;;;5046547;28;20047;-72
2023/07/14 10:08:46;;;;;;;3.25;0.80;;;27.00;92.20;;;;;;5047493;28;20067;-73
2023/07/14 10:11:29;;;;;;;3.78;1.60;;;27.10;91.70;;;;;;5044396;28;20119;-73
2023/07/14 10:14:03;;;;;;;2.67;0.82;;;27.10;91.40;;;;;;5054590;28;20040;-73
2023/07/14 10:16:33;;;;;;;2.72;0.80;;;27.10;91.10;;;;;;5057458;28;20040;-73
2023/07/14 10:19:04;;;;;;;3.13;1.17;;;27.10;90.90;;;;;;5051772;28;20051;-73
2023/07/14 10:21:34;;;;;;;1.90;0.90;;;27.20;90.70;;;;;;5067961;28;20039;-72
2023/07/14 10:24:14;;;;;;;2.35;1.00;;;27.20;90.70;;;;;;5051508;28;20047;-72
2023/07/14 10:26:48;;;;;;;2.28;0.80;;;27.20;90.50;;;;;;5053344;28;20032;-73
2023/07/14 10:29:16;;;;;;;2.75;0.70;;;27.20;90.40;;;;;;5046847;28;20043;-73
2023/07/14 10:31:51;;;;;;;2.17;0.90;;;27.30;90.40;;;;;;5051108;28;20032;-73
2023/07/14 10:34:52;;;;;;;1.80;0.88;;;27.50;90.20;;;;;;5043045;28;20039;-73
2023/07/14 10:37:27;;;;;;;3.65;0.90;;;27.40;90.10;;;;;;5060992;28;20071;-73
2023/07/14 10:40:17;;;;;;;3.08;1.17;;;27.40;90.20;;;;;;5061127;28;20044;-73
2023/07/14 10:43:03;;;;;;;3.42;1.40;;;27.60;89.50;;;;;;5050076;28;20501;-73
2023/07/14 10:45:34;;;;;;;4.22;0.93;;;27.60;87.70;;;;;;5052281;28;20049;-73
2023/07/14 10:48:29;;;;;;;2.10;0.77;;;27.60;87.70;;;;;;5049392;28;20410;-72
2023/07/14 10:51:10;;;;;;;2.15;1.10;;;27.50;87.60;;;;;;5049435;28;20043;-72
2023/07/14 10:53:48;;;;;;;2.42;0.82;;;27.50;87.90;;;;;;5056959;28;20698;-73
2023/07/14 10:56:24;;;;;;;3.25;1.00;;;27.60;88.20;;;;;;5056400;28;20419;-73
2023/07/14 10:58:58;;;;;;;1.73;0.70;;;27.50;87.60;;;;;;5048703;28;20040;-73
2023/07/14 11:01:40;;;;;;;3.38;0.85;;;27.40;87.80;;;;;;5064651;28;20032;-73
2023/07/14 11:04:33;;;;;;;2.53;0.80;;;27.20;87.60;;;;;;5064319;28;20471;-73
2023/07/14 11:07:01;;;;;;;2.50;1.10;;;27.10;87.20;;;;;;5047474;28;20546;-73
2023/07/14 11:09:28;;;;;;;2.33;0.98;;;27.10;87.50;;;;;;5047163;28;20036;-73
2023/07/14 11:12:18;;;;;;;2.03;0.90;;;27.10;87.50;;;;;;5052084;28;20032;-73
2023/07/14 11:14:56;;;;;;;1.60;0.70;;;27.20;88.10;;;;;;5073608;28;20887;-73
2023/07/14 11:17:37;;;;;;;2.35;0.98;;;27.30;87.80;;;;;;5058002;28;20623;-72
2023/07/14 11:20:26;;;;;;;3.70;0.80;;;27.30;87.60;;;;;;5049164;28;20032;-73
2023/07/14 11:23:13;;;;;;;1.40;0.90;;;27.20;86.70;;;;;;5064147;28;20067;-72
2023/07/14 11:25:49;;;;;;;2.47;0.70;;;27.00;86.20;;;;;;5047344;28;20032;-73
2023/07/14 11:28:40;;;;;;;1.38;0.60;;;27.00;86.40;;;;;;5043986;28;20438;-73
2023/07/14 11:31:36;;;;;;;1.98;0.70;;;27.00;86.80;;;;;;5051586;28;20059;-73
2023/07/14 11:34:25;;;;;;;2.35;1.02;;;27.10;86.60;;;;;;5054594;28;20435;-72
2023/07/14 11:37:30;;;;;;;2.08;0.80;;;27.00;86.20;;;;;;5074231;28;20046;-72
2023/07/14 11:39:58;;;;;;;2.97;0.80;;;27.00;86.50;;;;;;5045134;28;20046;-72
2023/07/14 11:42:31;;;;;;;1.60;1.00;;;27.00;86.60;;;;;;5047981;28;20040;-72
2023/07/14 11:45:00;;;;;;;2.70;0.80;;;27.00;86.70;;;;;;5051480;28;20055;-73
2023/07/14 11:47:32;;;;;;;2.67;1.13;;;27.00;86.30;;;;;;5049202;28;20043;-72
2023/07/14 11:50:02;;;;;;;2.13;0.90;;;27.10;86.00;;;;;;5044438;28;20032;-72
2023/07/14 11:52:30;;;;;;;3.90;1.10;;;27.10;86.10;;;;;;5033632;28;20040;-72
2023/07/14 11:55:03;;;;;;;3.58;0.80;;;27.40;86.10;;;;;;5055637;28;20040;-72
2023/07/14 11:57:45;;;;;;;1.70;0.80;;;27.70;86.60;;;;;;5058766;28;20054;-72
2023/07/14 12:00:26;;;;;;;1.92;0.90;;;28.00;86.30;;;;;;5051017;28;20037;-72
2023/07/14 12:03:02;;;;;;;3.47;1.10;;;28.40;85.50;;;;;;5047221;28;20040;-72
2023/07/14 12:05:36;;;;;;;2.13;1.00;;;28.30;85.00;;;;;;5051053;28;20028;-72
2023/07/14 12:08:05;;;;;;;3.55;1.00;;;28.00;84.80;;;;;;5047197;28;20028;-72
2023/07/14 12:10:41;;;;;;;1.98;0.90;;;27.70;85.10;;;;;;5051147;28;20036;-72
2023/07/14 12:13:27;;;;;;;1.60;0.90;;;27.50;85.50;;;;;;5067434;28;20043;-72
2023/07/14 12:15:56;;;;;;;3.25;1.00;;;27.20;85.90;;;;;;5059339;28;20036;-72
2023/07/14 12:18:53;;;;;;;3.90;0.93;;;27.20;86.10;;;;;;5053186;28;20055;-72
2023/07/14 12:21:30;;;;;;;2.72;0.90;;;27.40;85.70;;;;;;5052956;28;20030;-72
2023/07/14 12:24:03;;;;;;;1.73;0.93;;;27.90;85.50;;;;;;5051601;28;20032;-72
2023/07/14 12:26:49;;;;;;;2.63;1.05;;;28.50;85.00;;;;;;5050988;28;20055;-72
2023/07/14 12:29:17;;;;;;;2.28;1.00;;;28.90;84.40;;;;;;5044856;28;20467;-72
2023/07/14 12:31:50;;;;;;;3.08;1.00;;;29.40;83.60;;;;;;5052340;28;20035;-73
2023/07/14 12:34:18;;;;;;;1.77;0.70;;;29.70;83.30;;;;;;5036700;28;20040;-72
2023/07/14 12:36:45;;;;;;;3.47;0.88;;;29.90;82.70;;;;;;5057695;28;20036;-72
2023/07/14 12:39:11;;;;;;;2.60;0.80;;;30.20;81.90;;;;;;5051162;28;20036;-72
2023/07/14 12:41:43;;;;;;;1.70;0.88;;;30.50;80.60;;;;;;5054227;28;20638;-72
2023/07/14 12:44:28;;;;;;;3.08;0.90;;;30.80;79.80;;;;;;5048649;28;20537;-73
2023/07/14 12:46:55;;;;;;;2.45;0.80;;;31.10;79.60;;;;;;5034151;28;20039;-72
2023/07/14 12:49:33;;;;;;;1.90;0.90;;;31.50;77.20;;;;;;5044181;28;20040;-72
2023/07/14 12:52:11;;;;;;;6.32;0.80;;;32.10;76.70;;;;;;5065610;28;20766;-72
2023/07/14 12:54:45;;;;;;;2.42;0.90;;;32.70;74.20;;;;;;5052056;28;20036;-72
2023/07/14 12:57:14;;;;;;;3.75;0.80;;;32.90;73.00;;;;;;5058579;28;20539;-72
2023/07/14 12:59:41;;;;;;;2.72;0.70;;;33.10;71.80;;;;;;5052192;28;20051;-72
2023/07/14 13:02:11;;;;;;;1.95;0.70;;;33.10;71.30;;;;;;5052944;28;20040;-72
2023/07/14 13:04:38;;;;;;;1.50;0.80;;;33.10;70.90;;;;;;5049970;28;20040;-72
2023/07/14 13:07:12;;;;;;;2.72;0.90;;;33.10;70.60;;;;;;5047437;28;20039;-72
2023/07/14 13:09:39;;;;;;;1.55;0.80;;;33.00;71.10;;;;;;5042672;28;22049;-72